sensor_id;sensor_type;location;lat;lon;timestamp;temperature;humidity
53272;DHT22;39160;48.580;7.756;2023-03-31T00:01:19;15.30;94.40
53272;DHT22;39160;48.580;7.756;2023-03-31T00:06:12;15.30;94.50
53272;DHT22;39160;48.580;7.756;2023-03-31T00:11:07;15.20;94.60
53272;DHT22;39160;48.580;7.756;2023-03-31T00:16:06;15.10;94.60
53272;DHT22;39160;48.580;7.756;2023-03-31T00:21:18;15.20;94.60
53272;DHT22;39160;48.580;7.756;2023-03-31T00:26:18;15.20;94.80
53272;DHT22;39160;48.580;7.756;2023-03-31T00:31:09;15.20;94.70
53272;DHT22;39160;48.580;7.756;2023-03-31T00:35:59;15.20;94.80
53272;DHT22;39160;48.580;7.756;2023-03-31T00:40:51;15.10;94.90
53272;DHT22;39160;48.580;7.756;2023-03-31T00:45:41;15.00;95.20
53272;DHT22;39160;48.580;7.756;2023-03-31T00:50:36;14.50;95.80
53272;DHT22;39160;48.580;7.756;2023-03-31T00:55:33;14.30;96.10
53272;DHT22;39160;48.580;7.756;2023-03-31T01:00:25;14.30;96.30
53272;DHT22;39160;48.580;7.756;2023-03-31T01:05:25;14.20;96.70
53272;DHT22;39160;48.580;7.756;2023-03-31T01:10:17;14.20;96.80
53272;DHT22;39160;48.580;7.756;2023-03-31T01:15:08;14.20;97.00
53272;DHT22;39160;48.580;7.756;2023-03-31T01:40:46;14.30;97.60
53272;DHT22;39160;48.580;7.756;2023-03-31T01:51:31;14.20;97.90
53272;DHT22;39160;48.580;7.756;2023-03-31T01:56:25;14.30;98.10
53272;DHT22;39160;48.580;7.756;2023-03-31T02:01:31;14.40;98.30
53272;DHT22;39160;48.580;7.756;2023-03-31T02:06:28;14.40;98.20
53272;DHT22;39160;48.580;7.756;2023-03-31T02:11:24;14.50;98.50
53272;DHT22;39160;48.580;7.756;2023-03-31T02:16:19;14.40;98.40
53272;DHT22;39160;48.580;7.756;2023-03-31T02:21:14;14.40;98.40
53272;DHT22;39160;48.580;7.756;2023-03-31T02:26:11;14.30;98.70
53272;DHT22;39160;48.580;7.756;2023-03-31T02:31:05;14.30;98.90
53272;DHT22;39160;48.580;7.756;2023-03-31T02:35:58;14.30;98.90
53272;DHT22;39160;48.580;7.756;2023-03-31T02:40:49;14.30;98.90
53272;DHT22;39160;48.580;7.756;2023-03-31T02:45:47;14.20;99.10
53272;DHT22;39160;48.580;7.756;2023-03-31T02:50:57;14.20;99.20
53272;DHT22;39160;48.580;7.756;2023-03-31T02:56:08;14.10;99.40
53272;DHT22;39160;48.580;7.756;2023-03-31T03:02:17;14.10;99.40
53272;DHT22;39160;48.580;7.756;2023-03-31T03:12:07;14.00;99.80
53272;DHT22;39160;48.580;7.756;2023-03-31T03:17:12;13.90;99.70
53272;DHT22;39160;48.580;7.756;2023-03-31T03:22:04;13.80;99.90
53272;DHT22;39160;48.580;7.756;2023-03-31T03:26:55;13.70;99.90
53272;DHT22;39160;48.580;7.756;2023-03-31T03:31:46;13.60;99.90
53272;DHT22;39160;48.580;7.756;2023-03-31T03:36:37;13.70;99.90
53272;DHT22;39160;48.580;7.756;2023-03-31T03:41:28;13.70;99.90
53272;DHT22;39160;48.580;7.756;2023-03-31T03:46:18;13.70;99.90
53272;DHT22;39160;48.580;7.756;2023-03-31T03:51:09;13.70;99.90
53272;DHT22;39160;48.580;7.756;2023-03-31T03:56:00;13.70;99.90
53272;DHT22;39160;48.580;7.756;2023-03-31T04:00:50;13.70;99.90
53272;DHT22;39160;48.580;7.756;2023-03-31T04:05:41;13.60;99.90
53272;DHT22;39160;48.580;7.756;2023-03-31T04:10:32;13.60;99.90
53272;DHT22;39160;48.580;7.756;2023-03-31T04:15:22;13.60;99.90
53272;DHT22;39160;48.580;7.756;2023-03-31T04:20:13;13.70;99.90
53272;DHT22;39160;48.580;7.756;2023-03-31T04:25:04;13.60;99.90
53272;DHT22;39160;48.580;7.756;2023-03-31T04:30:04;13.30;99.90
53272;DHT22;39160;48.580;7.756;2023-03-31T04:34:55;13.20;99.90
53272;DHT22;39160;48.580;7.756;2023-03-31T04:39:52;13.10;99.90
53272;DHT22;39160;48.580;7.756;2023-03-31T04:44:43;13.10;99.90
53272;DHT22;39160;48.580;7.756;2023-03-31T04:49:34;13.20;99.90
53272;DHT22;39160;48.580;7.756;2023-03-31T04:54:26;13.20;99.90
53272;DHT22;39160;48.580;7.756;2023-03-31T04:59:16;13.30;99.90
53272;DHT22;39160;48.580;7.756;2023-03-31T05:04:08;13.20;99.90
53272;DHT22;39160;48.580;7.756;2023-03-31T05:08:59;13.20;99.90
53272;DHT22;39160;48.580;7.756;2023-03-31T05:13:49;13.20;99.90
53272;DHT22;39160;48.580;7.756;2023-03-31T05:18:41;13.00;99.90
53272;DHT22;39160;48.580;7.756;2023-03-31T05:23:31;13.00;99.90
53272;DHT22;39160;48.580;7.756;2023-03-31T05:28:22;13.00;99.90
53272;DHT22;39160;48.580;7.756;2023-03-31T05:33:13;13.00;99.90
53272;DHT22;39160;48.580;7.756;2023-03-31T05:38:03;13.00;99.90
53272;DHT22;39160;48.580;7.756;2023-03-31T05:42:54;13.00;99.90
53272;DHT22;39160;48.580;7.756;2023-03-31T05:47:45;12.90;99.90
53272;DHT22;39160;48.580;7.756;2023-03-31T05:52:36;12.70;99.90
53272;DHT22;39160;48.580;7.756;2023-03-31T05:57:27;12.50;99.90
53272;DHT22;39160;48.580;7.756;2023-03-31T06:02:17;12.60;99.90
53272;DHT22;39160;48.580;7.756;2023-03-31T06:07:08;12.70;99.90
53272;DHT22;39160;48.580;7.756;2023-03-31T06:11:59;12.70;99.90
53272;DHT22;39160;48.580;7.756;2023-03-31T06:16:50;12.70;99.90
53272;DHT22;39160;48.580;7.756;2023-03-31T06:21:40;12.60;99.90
53272;DHT22;39160;48.580;7.756;2023-03-31T06:26:31;12.80;99.90
53272;DHT22;39160;48.580;7.756;2023-03-31T06:31:23;12.90;99.90
53272;DHT22;39160;48.580;7.756;2023-03-31T06:36:16;13.00;99.90
53272;DHT22;39160;48.580;7.756;2023-03-31T06:41:08;13.10;99.90
53272;DHT22;39160;48.580;7.756;2023-03-31T06:46:01;13.10;99.90
53272;DHT22;39160;48.580;7.756;2023-03-31T06:50:55;13.20;99.90
53272;DHT22;39160;48.580;7.756;2023-03-31T06:55:48;13.10;99.90
53272;DHT22;39160;48.580;7.756;2023-03-31T07:00:38;13.10;99.90
53272;DHT22;39160;48.580;7.756;2023-03-31T07:05:30;13.20;99.90
53272;DHT22;39160;48.580;7.756;2023-03-31T07:10:22;13.30;99.90
53272;DHT22;39160;48.580;7.756;2023-03-31T07:15:13;13.20;99.90
53272;DHT22;39160;48.580;7.756;2023-03-31T07:20:03;13.30;99.90
53272;DHT22;39160;48.580;7.756;2023-03-31T07:24:59;13.50;99.90
53272;DHT22;39160;48.580;7.756;2023-03-31T07:29:49;13.60;99.90
53272;DHT22;39160;48.580;7.756;2023-03-31T07:34:40;13.80;99.90
53272;DHT22;39160;48.580;7.756;2023-03-31T07:39:31;13.90;99.90
53272;DHT22;39160;48.580;7.756;2023-03-31T07:44:22;14.00;99.90
53272;DHT22;39160;48.580;7.756;2023-03-31T07:49:12;13.90;99.90
53272;DHT22;39160;48.580;7.756;2023-03-31T07:54:05;14.10;99.90
53272;DHT22;39160;48.580;7.756;2023-03-31T07:58:55;14.10;99.90
53272;DHT22;39160;48.580;7.756;2023-03-31T08:03:47;14.10;99.90
53272;DHT22;39160;48.580;7.756;2023-03-31T08:08:38;14.00;99.90
53272;DHT22;39160;48.580;7.756;2023-03-31T08:13:32;14.00;99.90
53272;DHT22;39160;48.580;7.756;2023-03-31T08:18:23;14.30;99.90
53272;DHT22;39160;48.580;7.756;2023-03-31T08:23:13;14.50;99.90
53272;DHT22;39160;48.580;7.756;2023-03-31T08:28:04;14.50;99.90
53272;DHT22;39160;48.580;7.756;2023-03-31T08:32:56;14.80;99.90
53272;DHT22;39160;48.580;7.756;2023-03-31T08:37:46;15.20;99.90
53272;DHT22;39160;48.580;7.756;2023-03-31T08:42:50;15.40;99.90
53272;DHT22;39160;48.580;7.756;2023-03-31T08:47:42;15.40;99.90
53272;DHT22;39160;48.580;7.756;2023-03-31T08:52:49;15.50;99.90
53272;DHT22;39160;48.580;7.756;2023-03-31T08:58:16;15.40;99.90
53272;DHT22;39160;48.580;7.756;2023-03-31T09:18:36;15.50;99.90
53272;DHT22;39160;48.580;7.756;2023-03-31T09:23:51;15.70;99.90
53272;DHT22;39160;48.580;7.756;2023-03-31T09:28:43;16.00;98.90
53272;DHT22;39160;48.580;7.756;2023-03-31T09:33:41;16.20;99.00
53272;DHT22;39160;48.580;7.756;2023-03-31T09:38:33;16.40;98.80
53272;DHT22;39160;48.580;7.756;2023-03-31T09:43:26;16.40;98.40
53272;DHT22;39160;48.580;7.756;2023-03-31T09:48:20;16.40;98.50
53272;DHT22;39160;48.580;7.756;2023-03-31T09:53:24;16.00;98.30
53272;DHT22;39160;48.580;7.756;2023-03-31T09:58:16;15.70;98.40
53272;DHT22;39160;48.580;7.756;2023-03-31T10:03:13;15.40;98.40
53272;DHT22;39160;48.580;7.756;2023-03-31T10:13:08;14.20;97.90
53272;DHT22;39160;48.580;7.756;2023-03-31T10:18:00;12.40;99.90
53272;DHT22;39160;48.580;7.756;2023-03-31T10:22:50;11.00;99.90
53272;DHT22;39160;48.580;7.756;2023-03-31T10:27:44;10.80;99.90
53272;DHT22;39160;48.580;7.756;2023-03-31T10:32:40;11.00;99.90
53272;DHT22;39160;48.580;7.756;2023-03-31T10:37:34;11.10;99.90
53272;DHT22;39160;48.580;7.756;2023-03-31T10:42:26;11.20;99.90
53272;DHT22;39160;48.580;7.756;2023-03-31T10:47:20;11.50;99.90
53272;DHT22;39160;48.580;7.756;2023-03-31T10:52:20;11.90;99.90
53272;DHT22;39160;48.580;7.756;2023-03-31T10:57:11;12.30;99.90
53272;DHT22;39160;48.580;7.756;2023-03-31T11:12:43;13.60;99.90
53272;DHT22;39160;48.580;7.756;2023-03-31T11:39:15;14.30;99.90
53272;DHT22;39160;48.580;7.756;2023-03-31T11:43:50;14.70;99.90
53272;DHT22;39160;48.580;7.756;2023-03-31T11:48:58;14.90;99.90
53272;DHT22;39160;48.580;7.756;2023-03-31T11:53:52;14.90;99.90
53272;DHT22;39160;48.580;7.756;2023-03-31T11:58:48;14.90;99.90
53272;DHT22;39160;48.580;7.756;2023-03-31T12:09:24;13.80;99.90
53272;DHT22;39160;48.580;7.756;2023-03-31T12:19:26;12.90;99.90
53272;DHT22;39160;48.580;7.756;2023-03-31T12:24:18;12.20;99.90
53272;DHT22;39160;48.580;7.756;2023-03-31T12:29:21;12.10;99.90
53272;DHT22;39160;48.580;7.756;2023-03-31T12:34:17;12.30;99.90
53272;DHT22;39160;48.580;7.756;2023-03-31T13:00:24;12.60;99.90
53272;DHT22;39160;48.580;7.756;2023-03-31T13:10:30;13.90;99.90
53272;DHT22;39160;48.580;7.756;2023-03-31T13:15:22;14.90;99.90
53272;DHT22;39160;48.580;7.756;2023-03-31T13:35:30;19.50;99.00
53272;DHT22;39160;48.580;7.756;2023-03-31T13:40:57;21.20;98.50
53272;DHT22;39160;48.580;7.756;2023-03-31T13:56:12;18.40;98.00
53272;DHT22;39160;48.580;7.756;2023-03-31T14:06:46;17.40;97.60
53272;DHT22;39160;48.580;7.756;2023-03-31T14:11:38;18.00;97.20
53272;DHT22;39160;48.580;7.756;2023-03-31T14:16:32;17.40;97.50
53272;DHT22;39160;48.580;7.756;2023-03-31T14:21:30;16.70;97.80
53272;DHT22;39160;48.580;7.756;2023-03-31T14:31:37;16.40;97.50
53272;DHT22;39160;48.580;7.756;2023-03-31T14:36:43;16.00;97.80
53272;DHT22;39160;48.580;7.756;2023-03-31T14:41:37;15.90;97.70
53272;DHT22;39160;48.580;7.756;2023-03-31T14:46:30;15.80;97.60
53272;DHT22;39160;48.580;7.756;2023-03-31T14:51:29;15.60;97.60
53272;DHT22;39160;48.580;7.756;2023-03-31T14:56:25;15.30;97.60
53272;DHT22;39160;48.580;7.756;2023-03-31T15:01:25;15.10;97.80
53272;DHT22;39160;48.580;7.756;2023-03-31T15:06:18;15.00;98.10
53272;DHT22;39160;48.580;7.756;2023-03-31T15:11:13;14.30;98.00
53272;DHT22;39160;48.580;7.756;2023-03-31T15:21:24;10.20;99.90
53272;DHT22;39160;48.580;7.756;2023-03-31T15:26:15;9.90;99.90
53272;DHT22;39160;48.580;7.756;2023-03-31T15:31:08;10.10;99.90
53272;DHT22;39160;48.580;7.756;2023-03-31T15:35:59;10.50;99.90
53272;DHT22;39160;48.580;7.756;2023-03-31T15:40:54;11.20;99.90
53272;DHT22;39160;48.580;7.756;2023-03-31T15:45:57;11.80;99.90
53272;DHT22;39160;48.580;7.756;2023-03-31T15:50:49;12.00;99.90
53272;DHT22;39160;48.580;7.756;2023-03-31T15:55:41;12.30;99.90
53272;DHT22;39160;48.580;7.756;2023-03-31T16:00:44;12.40;99.90
53272;DHT22;39160;48.580;7.756;2023-03-31T16:10:39;12.70;99.90
53272;DHT22;39160;48.580;7.756;2023-03-31T16:15:36;12.70;99.90
53272;DHT22;39160;48.580;7.756;2023-03-31T16:20:41;12.70;99.90
53272;DHT22;39160;48.580;7.756;2023-03-31T16:25:38;12.70;99.90
53272;DHT22;39160;48.580;7.756;2023-03-31T16:30:34;12.80;99.90
53272;DHT22;39160;48.580;7.756;2023-03-31T16:35:33;12.70;99.90
53272;DHT22;39160;48.580;7.756;2023-03-31T16:40:27;12.50;99.90
53272;DHT22;39160;48.580;7.756;2023-03-31T16:45:17;12.50;99.90
53272;DHT22;39160;48.580;7.756;2023-03-31T16:50:10;12.80;99.90
53272;DHT22;39160;48.580;7.756;2023-03-31T16:55:03;12.90;99.90
53272;DHT22;39160;48.580;7.756;2023-03-31T16:59:55;13.10;99.90
53272;DHT22;39160;48.580;7.756;2023-03-31T17:04:46;13.20;99.90
53272;DHT22;39160;48.580;7.756;2023-03-31T17:09:37;13.20;99.90
53272;DHT22;39160;48.580;7.756;2023-03-31T17:14:27;13.90;99.90
53272;DHT22;39160;48.580;7.756;2023-03-31T17:19:18;13.90;99.90
53272;DHT22;39160;48.580;7.756;2023-03-31T17:24:08;13.70;99.90
53272;DHT22;39160;48.580;7.756;2023-03-31T17:28:59;13.50;99.90
53272;DHT22;39160;48.580;7.756;2023-03-31T17:33:50;13.40;99.90
53272;DHT22;39160;48.580;7.756;2023-03-31T17:38:41;13.40;99.90
53272;DHT22;39160;48.580;7.756;2023-03-31T17:43:32;13.20;99.90
53272;DHT22;39160;48.580;7.756;2023-03-31T17:48:22;13.10;99.90
53272;DHT22;39160;48.580;7.756;2023-03-31T17:53:13;13.10;99.90
53272;DHT22;39160;48.580;7.756;2023-03-31T17:58:04;13.00;99.90
53272;DHT22;39160;48.580;7.756;2023-03-31T18:02:55;13.00;99.90
53272;DHT22;39160;48.580;7.756;2023-03-31T18:07:46;12.90;99.90
53272;DHT22;39160;48.580;7.756;2023-03-31T18:12:37;12.90;99.90
53272;DHT22;39160;48.580;7.756;2023-03-31T18:17:27;12.90;99.90
53272;DHT22;39160;48.580;7.756;2023-03-31T18:22:18;12.90;99.90
53272;DHT22;39160;48.580;7.756;2023-03-31T18:27:08;12.90;99.90
53272;DHT22;39160;48.580;7.756;2023-03-31T18:31:59;12.90;99.90
53272;DHT22;39160;48.580;7.756;2023-03-31T18:36:51;12.90;99.90
53272;DHT22;39160;48.580;7.756;2023-03-31T18:41:46;12.90;99.90
53272;DHT22;39160;48.580;7.756;2023-03-31T18:46:38;12.80;99.90
53272;DHT22;39160;48.580;7.756;2023-03-31T18:51:28;12.80;99.90
53272;DHT22;39160;48.580;7.756;2023-03-31T18:56:19;12.80;99.90
53272;DHT22;39160;48.580;7.756;2023-03-31T19:01:09;12.80;99.90
53272;DHT22;39160;48.580;7.756;2023-03-31T19:06:02;12.70;99.90
53272;DHT22;39160;48.580;7.756;2023-03-31T19:11:09;12.70;99.90
53272;DHT22;39160;48.580;7.756;2023-03-31T19:15:59;12.60;99.90
53272;DHT22;39160;48.580;7.756;2023-03-31T19:20:50;12.60;99.90
53272;DHT22;39160;48.580;7.756;2023-03-31T19:25:41;12.50;99.90
53272;DHT22;39160;48.580;7.756;2023-03-31T19:30:32;12.50;99.90
53272;DHT22;39160;48.580;7.756;2023-03-31T19:35:23;12.40;99.90
53272;DHT22;39160;48.580;7.756;2023-03-31T19:40:16;12.30;99.90
53272;DHT22;39160;48.580;7.756;2023-03-31T19:45:07;12.30;99.90
53272;DHT22;39160;48.580;7.756;2023-03-31T19:49:58;12.30;99.90
53272;DHT22;39160;48.580;7.756;2023-03-31T19:54:48;12.20;99.90
53272;DHT22;39160;48.580;7.756;2023-03-31T19:59:39;12.20;99.90
53272;DHT22;39160;48.580;7.756;2023-03-31T20:04:31;12.10;99.90
53272;DHT22;39160;48.580;7.756;2023-03-31T20:09:22;12.10;99.90
53272;DHT22;39160;48.580;7.756;2023-03-31T20:14:14;12.10;99.90
53272;DHT22;39160;48.580;7.756;2023-03-31T20:19:05;12.10;99.90
53272;DHT22;39160;48.580;7.756;2023-03-31T20:23:57;12.10;99.90
53272;DHT22;39160;48.580;7.756;2023-03-31T20:28:48;12.20;99.90
53272;DHT22;39160;48.580;7.756;2023-03-31T20:33:39;12.10;99.90
53272;DHT22;39160;48.580;7.756;2023-03-31T20:38:32;12.10;99.90
53272;DHT22;39160;48.580;7.756;2023-03-31T20:43:24;12.10;99.90
53272;DHT22;39160;48.580;7.756;2023-03-31T20:48:15;12.10;99.90
53272;DHT22;39160;48.580;7.756;2023-03-31T20:53:05;12.10;99.90
53272;DHT22;39160;48.580;7.756;2023-03-31T20:57:56;12.10;99.90
53272;DHT22;39160;48.580;7.756;2023-03-31T21:02:47;12.00;99.90
53272;DHT22;39160;48.580;7.756;2023-03-31T21:07:38;12.00;99.90
53272;DHT22;39160;48.580;7.756;2023-03-31T21:12:28;11.90;99.90
53272;DHT22;39160;48.580;7.756;2023-03-31T21:17:19;11.80;99.90
53272;DHT22;39160;48.580;7.756;2023-03-31T21:22:10;11.70;99.90
53272;DHT22;39160;48.580;7.756;2023-03-31T21:27:00;11.60;99.90
53272;DHT22;39160;48.580;7.756;2023-03-31T21:31:51;11.50;99.90
53272;DHT22;39160;48.580;7.756;2023-03-31T21:36:42;11.30;99.90
53272;DHT22;39160;48.580;7.756;2023-03-31T21:41:32;11.20;99.90
53272;DHT22;39160;48.580;7.756;2023-03-31T21:46:25;11.20;99.90
53272;DHT22;39160;48.580;7.756;2023-03-31T21:51:19;11.20;99.90
53272;DHT22;39160;48.580;7.756;2023-03-31T21:56:11;11.20;99.90
53272;DHT22;39160;48.580;7.756;2023-03-31T22:01:03;11.10;99.90
53272;DHT22;39160;48.580;7.756;2023-03-31T22:05:55;11.10;99.90
53272;DHT22;39160;48.580;7.756;2023-03-31T22:10:50;11.10;99.90
53272;DHT22;39160;48.580;7.756;2023-03-31T22:15:42;11.10;99.90
53272;DHT22;39160;48.580;7.756;2023-03-31T22:20:33;11.10;99.90
53272;DHT22;39160;48.580;7.756;2023-03-31T22:25:24;11.10;99.90
53272;DHT22;39160;48.580;7.756;2023-03-31T22:30:14;11.30;99.90
53272;DHT22;39160;48.580;7.756;2023-03-31T22:35:05;11.30;99.90
53272;DHT22;39160;48.580;7.756;2023-03-31T22:39:56;11.20;99.90
53272;DHT22;39160;48.580;7.756;2023-03-31T22:44:47;11.20;99.90
53272;DHT22;39160;48.580;7.756;2023-03-31T22:49:38;11.20;99.90
53272;DHT22;39160;48.580;7.756;2023-03-31T22:54:28;11.30;99.90
53272;DHT22;39160;48.580;7.756;2023-03-31T22:59:19;11.20;99.90
53272;DHT22;39160;48.580;7.756;2023-03-31T23:04:10;11.30;99.90
53272;DHT22;39160;48.580;7.756;2023-03-31T23:09:00;11.40;99.90
53272;DHT22;39160;48.580;7.756;2023-03-31T23:13:51;11.40;99.90
53272;DHT22;39160;48.580;7.756;2023-03-31T23:18:42;11.40;99.90
53272;DHT22;39160;48.580;7.756;2023-03-31T23:23:35;11.50;99.90
53272;DHT22;39160;48.580;7.756;2023-03-31T23:28:26;11.50;99.90
53272;DHT22;39160;48.580;7.756;2023-03-31T23:33:17;11.60;99.90
53272;DHT22;39160;48.580;7.756;2023-03-31T23:38:07;11.60;99.90
53272;DHT22;39160;48.580;7.756;2023-03-31T23:42:58;11.60;99.90
53272;DHT22;39160;48.580;7.756;2023-03-31T23:47:48;11.60;99.90
53272;DHT22;39160;48.580;7.756;2023-03-31T23:52:39;11.60;99.90
53272;DHT22;39160;48.580;7.756;2023-03-31T23:57:30;11.60;99.90
